Forster Beach, New South Wales

10:40 PM AEDT on March 30, 2015 (GMT +1100)
Forster Keys Kenrose St | | Change Station
CLOSE
Current Station
Personal Weather Station
Location: Forster, NEW SOUTH WALES
Elevation: 10 ft
Nearby Weather Stations

Elev 10 ft 32.21 °S, 152.52 °E | Updated 2 seconds ago

Rain
Rain
66.0 °F
Feels Like 66.0 °F
N
1.0
Wind Variable Wind from East
Gusts 1.0 mph

Today
High -- | Low -- °F
--% Chance of Precip.
Yesterday
High -- | Low -- °F
Precip. -- in
6:59 AM 6:49 PM
Waxing Gibbous, 79% visible
Pressure 30.24 in
Visibility 6.2 miles
Clouds Mostly Cloudy 600 ft
Mostly Cloudy 1800 ft
Overcast 3200 ft
Dew Point 66 °F
Humidity 96%
Rainfall 0.24 in
Snow Depth Not available.
UV 0 out of 12
Pollen Not available.
Air Quality Not available.
Flu Activity Not available.
SPECI YPMQ 301131Z AUTO 05005KT 9999 // BKN006 BKN018 OVC032 19/18 Q1024

More Conditions Fewer Conditions

Pressure 30.24 in
Visibility 6.2 miles
Clouds Mostly Cloudy 600 ft
Mostly Cloudy 1800 ft
Overcast 3200 ft
Dew Point 66 °F
Humidity 96%
Rainfall 0.24 in
Snow Depth Not available.
UV 0 out of 12
Pollen Not available.
Air Quality Not available.
Flu Activity Not available.
SPECI YPMQ 301131Z AUTO 05005KT 9999 // BKN006 BKN018 OVC032 19/18 Q1024

More Conditions Fewer Conditions

10-Day Weather Forecast

Almanac

Astronomy

Mar. 30, 2015 Rise Set
Actual Time
Civil Twilight
Nautical Twilight
Astronomical Twilight
Moon
Length of Visible Light
Length of Day
Tomorrow will be .
, % of the Moon is Illuminated

Today's Extremes

Country Highs Country Lows

Community

WunderPhotos

Upload Photos

1,809,457 photos uploaded!

WunderBlogs® & News

Nearby

Air Quality

  Air Quality AQ Index Pollutant
Not available.

Snow Depth

Station Depth Elevation

Earthquake Activity

City Distance Mag. Time & Date
Minimum magnitude displayed is 2.5.

Coastal Water Temperatures

Place Temperature

Stations

Nearby Weather Stations

Station Location Temp. Windchill Dew Point Humidity Wind Precip. Elev Updated Type